createdAt,value
2022-11-23T00:00:57.916Z,1.58
2022-11-23T00:03:24.379Z,1.61
2022-11-23T00:05:50.870Z,1.61
2022-11-23T00:08:17.318Z,1.62
2022-11-23T00:10:43.771Z,1.59
2022-11-23T00:13:10.286Z,1.64
2022-11-23T00:15:36.814Z,1.57
2022-11-23T00:18:03.371Z,1.53
2022-11-23T00:20:29.829Z,1.61
2022-11-23T00:22:56.275Z,1.58
2022-11-23T00:25:22.722Z,1.57
2022-11-23T00:27:49.154Z,1.65
2022-11-23T00:30:16.339Z,1.60
2022-11-23T00:32:42.789Z,1.59
2022-11-23T00:35:09.233Z,1.60
2022-11-23T00:37:35.690Z,1.60
2022-11-23T00:40:02.132Z,1.66
2022-11-23T00:42:30.622Z,1.64
2022-11-23T00:45:00.979Z,1.58
2022-11-23T00:47:27.484Z,1.57
2022-11-23T00:49:53.921Z,1.54
2022-11-23T00:52:20.393Z,1.53
2022-11-23T00:54:46.821Z,1.58
2022-11-23T00:57:13.515Z,1.56
2022-11-23T00:59:39.997Z,1.56
2022-11-23T01:02:06.498Z,1.48
2022-11-23T01:04:32.940Z,1.49
2022-11-23T01:06:59.590Z,1.46
2022-11-23T01:09:29.221Z,1.49
2022-11-23T01:11:56.164Z,1.51
2022-11-23T01:14:25.270Z,1.47
2022-11-23T01:16:51.789Z,1.44
2022-11-23T01:19:19.892Z,1.42
2022-11-23T01:21:49.028Z,1.43
2022-11-23T01:24:18.394Z,1.39
2022-11-23T01:26:45.322Z,1.40
2022-11-23T01:29:12.322Z,1.41
2022-11-23T01:31:45.935Z,1.38
2022-11-23T01:34:14.749Z,1.35
2022-11-23T01:36:41.338Z,1.37
2022-11-23T01:39:07.830Z,1.29
2022-11-23T01:41:38.182Z,1.21
2022-11-23T01:44:22.848Z,1.21
2022-11-23T01:46:54.472Z,1.25
2022-11-23T01:49:22.403Z,1.23
2022-11-23T01:51:51.316Z,1.19
2022-11-23T01:54:28.116Z,1.14
2022-11-23T01:57:01.637Z,1.11
2022-11-23T01:59:30.951Z,1.11
2022-11-23T02:01:58.332Z,1.09
2022-11-23T02:04:33.987Z,1.07
2022-11-23T02:07:03.020Z,0.95
2022-11-23T02:09:32.375Z,0.99
2022-11-23T02:11:59.296Z,0.97
2022-11-23T02:14:26.002Z,0.93
2022-11-23T02:16:55.084Z,0.90
2022-11-23T02:19:37.234Z,0.86
2022-11-23T02:22:12.546Z,0.87
2022-11-23T02:24:46.679Z,0.90
2022-11-23T02:27:14.572Z,0.92
2022-11-23T02:29:41.418Z,0.85
2022-11-23T02:32:07.929Z,0.84
2022-11-23T02:34:34.379Z,0.79
2022-11-23T02:37:01.165Z,0.80
2022-11-23T02:39:46.037Z,0.79
2022-11-23T02:42:12.657Z,0.79
2022-11-23T02:44:45.023Z,0.78
2022-11-23T02:47:13.440Z,0.79
2022-11-23T02:49:47.084Z,0.77
2022-11-23T02:52:14.799Z,0.74
2022-11-23T02:54:41.301Z,0.77
2022-11-23T02:57:08.662Z,0.73
2022-11-23T02:59:35.981Z,0.78
2022-11-23T03:02:04.483Z,0.73
2022-11-23T03:04:31.623Z,0.78
2022-11-23T03:06:58.331Z,0.76
2022-11-23T03:09:26.320Z,0.78
2022-11-23T03:11:53.744Z,0.79
2022-11-23T03:14:20.585Z,0.82
2022-11-23T03:16:51.990Z,0.77
2022-11-23T03:19:20.014Z,0.82
2022-11-23T03:21:47.950Z,0.79
2022-11-23T03:24:14.412Z,0.80
2022-11-23T03:26:40.874Z,0.83
2022-11-23T03:29:13.945Z,0.87
2022-11-23T03:31:42.295Z,0.83
2022-11-23T03:34:12.207Z,0.80
2022-11-23T03:36:39.828Z,0.77
2022-11-23T03:39:06.358Z,0.80
2022-11-23T03:41:56.273Z,0.83
2022-11-23T03:44:28.636Z,0.93
2022-11-23T03:46:55.139Z,0.95
2022-11-23T03:49:21.599Z,0.87
2022-11-23T03:51:48.223Z,0.89
2022-11-23T03:54:14.740Z,0.93
2022-11-23T03:56:41.201Z,0.97
2022-11-23T03:59:07.876Z,0.95
2022-11-23T04:01:34.345Z,0.96
2022-11-23T04:04:04.963Z,1.04
2022-11-23T04:06:50.300Z,0.97
2022-11-23T04:09:20.857Z,1.02
2022-11-23T04:12:09.236Z,1.09
2022-11-23T04:14:37.772Z,1.05
2022-11-23T04:17:04.458Z,1.03
2022-11-23T04:19:31.609Z,0.95
2022-11-23T04:21:58.386Z,0.97
2022-11-23T04:24:27.295Z,0.98
2022-11-23T04:26:56.439Z,1.03
2022-11-23T04:29:23.984Z,1.05
2022-11-23T04:31:53.712Z,1.01
2022-11-23T04:34:21.312Z,1.04
2022-11-23T04:36:49.601Z,0.99
2022-11-23T04:39:18.429Z,0.94
2022-11-23T04:42:00.201Z,0.97
2022-11-23T04:44:26.690Z,1.01
2022-11-23T04:46:59.688Z,0.97
2022-11-23T04:49:26.470Z,0.96
2022-11-23T04:51:53.799Z,0.96
2022-11-23T04:54:23.326Z,0.89
2022-11-23T04:56:55.202Z,0.91
2022-11-23T04:59:22.931Z,0.94
2022-11-23T05:01:52.143Z,0.96
2022-11-23T05:04:37.458Z,0.93
2022-11-23T05:07:05.093Z,0.89
2022-11-23T05:09:33.932Z,0.96
2022-11-23T05:12:07.875Z,0.95
2022-11-23T05:14:35.027Z,0.98
2022-11-23T05:17:02.723Z,0.90
2022-11-23T05:19:30.128Z,0.99
2022-11-23T05:21:56.970Z,0.97
2022-11-23T05:24:24.646Z,1.02
2022-11-23T05:27:03.660Z,1.03
2022-11-23T05:29:30.576Z,1.06
2022-11-23T05:31:57.329Z,1.10
2022-11-23T05:34:23.820Z,1.09
2022-11-23T05:36:50.346Z,1.18
2022-11-23T05:39:18.179Z,1.12
2022-11-23T05:41:46.747Z,1.08
2022-11-23T05:44:26.839Z,1.05
2022-11-23T05:46:53.413Z,1.02
2022-11-23T05:49:20.979Z,0.94
2022-11-23T05:51:47.587Z,0.88
2022-11-23T05:54:14.253Z,0.89
2022-11-23T05:56:57.279Z,0.88
2022-11-23T05:59:34.218Z,0.89
2022-11-23T06:02:02.535Z,1.02
2022-11-23T06:04:32.137Z,0.97
2022-11-23T06:07:01.348Z,0.99
2022-11-23T06:09:36.646Z,1.05
2022-11-23T06:12:07.627Z,1.05
2022-11-23T06:14:34.493Z,1.15
2022-11-23T06:17:01.227Z,1.19
2022-11-23T06:19:36.020Z,1.20
2022-11-23T06:22:03.834Z,1.23
2022-11-23T06:24:33.889Z,1.23
2022-11-23T06:27:32.460Z,1.19
2022-11-23T06:30:02.067Z,1.19
2022-11-23T06:32:31.353Z,1.19
2022-11-23T06:35:00.993Z,1.09
2022-11-23T06:37:30.765Z,1.20
2022-11-23T06:39:57.393Z,1.21
2022-11-23T06:42:38.402Z,1.26
2022-11-23T06:45:09.360Z,1.22
2022-11-23T06:47:36.916Z,1.33
2022-11-23T06:50:05.016Z,1.33
2022-11-23T06:52:31.502Z,1.35
2022-11-23T06:54:58.027Z,1.25
2022-11-23T06:57:26.478Z,1.46
2022-11-23T06:59:54.369Z,1.43
2022-11-23T07:02:26.791Z,1.54
2022-11-23T07:04:56.062Z,1.51
2022-11-23T07:07:23.766Z,1.60
2022-11-23T07:10:02.645Z,1.55
2022-11-23T07:12:38.027Z,1.57
2022-11-23T07:15:05.718Z,1.58
2022-11-23T07:17:44.093Z,1.64
2022-11-23T07:20:12.281Z,1.63
2022-11-23T07:22:40.087Z,1.66
2022-11-23T07:25:08.166Z,1.71
2022-11-23T07:27:34.645Z,1.75
2022-11-23T07:30:02.804Z,1.82
2022-11-23T07:32:29.327Z,1.80
2022-11-23T07:34:56.098Z,1.86
2022-11-23T07:37:22.759Z,1.81
2022-11-23T07:39:57.493Z,1.90
2022-11-23T07:42:36.816Z,1.89
2022-11-23T07:45:07.552Z,1.98
2022-11-23T07:47:36.595Z,1.99
2022-11-23T07:50:03.967Z,1.99
2022-11-23T07:52:30.507Z,1.94
2022-11-23T07:54:56.998Z,1.89
2022-11-23T07:57:23.457Z,1.89
2022-11-23T07:59:49.901Z,1.94
2022-11-23T08:07:15.278Z,1.89
2022-11-23T08:13:04.934Z,2.03
2022-11-23T08:23:25.969Z,2.24
2022-11-23T08:25:52.773Z,2.19
2022-11-23T08:28:19.895Z,2.47
2022-11-23T08:30:47.078Z,2.42
2022-11-23T08:33:14.175Z,2.37
2022-11-23T08:35:42.510Z,2.50
2022-11-23T08:38:10.449Z,2.57
2022-11-23T08:40:37.617Z,2.58
2022-11-23T08:43:05.071Z,2.46
2022-11-23T08:45:31.563Z,2.58
2022-11-23T08:48:01.878Z,2.65
2022-11-23T08:50:32.226Z,2.63
2022-11-23T08:53:00.115Z,2.77
2022-11-23T08:55:28.448Z,2.70
2022-11-23T08:57:56.799Z,2.64
2022-11-23T09:00:23.858Z,2.44
2022-11-23T09:02:50.313Z,2.65
2022-11-23T09:05:16.834Z,2.70
2022-11-23T09:07:43.364Z,2.63
2022-11-23T09:10:13.626Z,2.70
2022-11-23T09:12:43.509Z,2.61
2022-11-23T09:15:10.421Z,2.64
2022-11-23T09:17:36.869Z,2.68
2022-11-23T09:20:03.504Z,2.74
2022-11-23T09:22:29.951Z,2.77
2022-11-23T09:24:56.419Z,2.74
2022-11-23T09:27:23.147Z,2.81
2022-11-23T09:29:49.952Z,2.54
2022-11-23T09:32:16.418Z,2.70
2022-11-23T09:34:42.937Z,2.63
2022-11-23T09:37:09.387Z,2.76
2022-11-23T09:39:35.818Z,2.79
2022-11-23T09:42:28.901Z,2.74
2022-11-23T09:45:13.695Z,2.72
2022-11-23T09:47:56.936Z,2.65
2022-11-23T09:50:29.630Z,2.75
2022-11-23T09:52:56.143Z,2.59
2022-11-23T09:55:42.800Z,2.71
2022-11-23T09:58:18.012Z,2.68
2022-11-23T10:00:51.519Z,2.64
2022-11-23T10:03:18.546Z,2.76
2022-11-23T10:05:57.661Z,2.84
2022-11-23T10:09:06.905Z,2.88
2022-11-23T10:11:49.798Z,2.86
2022-11-23T10:14:47.181Z,2.74
2022-11-23T10:17:45.239Z,2.87
2022-11-23T10:20:27.166Z,2.88
2022-11-23T10:23:01.723Z,3.15
2022-11-23T10:25:46.343Z,3.11
2022-11-23T10:28:15.969Z,3.23
2022-11-23T10:30:43.127Z,3.31
2022-11-23T10:33:31.290Z,3.33
2022-11-23T10:35:57.981Z,3.40
2022-11-23T10:38:28.410Z,3.42
2022-11-23T10:41:12.690Z,3.46
2022-11-23T10:43:47.723Z,3.64
2022-11-23T10:46:37.590Z,3.64
2022-11-23T10:49:23.777Z,3.69
2022-11-23T10:52:05.576Z,3.69
2022-11-23T10:54:34.587Z,3.72
2022-11-23T10:57:20.991Z,3.66
2022-11-23T11:00:02.469Z,3.82
2022-11-23T11:02:29.216Z,3.88
2022-11-23T11:05:14.288Z,3.79
2022-11-23T11:07:40.882Z,3.96
2022-11-23T11:10:35.249Z,4.15
2022-11-23T11:13:02.334Z,4.19
2022-11-23T11:15:28.799Z,4.33
2022-11-23T11:17:57.495Z,4.16
2022-11-23T11:20:31.391Z,4.18
2022-11-23T11:23:17.433Z,4.34
2022-11-23T11:25:44.577Z,4.20
2022-11-23T11:28:42.091Z,4.42
2022-11-23T11:31:25.184Z,4.33
2022-11-23T11:34:18.997Z,4.57
2022-11-23T11:36:54.951Z,4.53
2022-11-23T11:39:32.664Z,4.63
2022-11-23T11:42:03.019Z,4.91
2022-11-23T11:44:35.093Z,4.77
2022-11-23T11:47:13.155Z,4.82
2022-11-23T11:49:46.823Z,4.64
2022-11-23T11:52:28.038Z,4.76
2022-11-23T11:55:09.776Z,4.99
2022-11-23T11:57:42.766Z,4.88
2022-11-23T12:00:20.175Z,4.96
2022-11-23T12:03:01.002Z,4.86
2022-11-23T12:05:39.003Z,5.02
2022-11-23T12:08:05.345Z,5.05
2022-11-23T12:10:54.367Z,4.87
2022-11-23T12:13:25.693Z,5.04
2022-11-23T12:16:15.953Z,5.03
2022-11-23T12:19:00.442Z,5.26
2022-11-23T12:21:54.478Z,4.94
2022-11-23T12:24:50.178Z,5.10
2022-11-23T12:27:48.237Z,5.24
2022-11-23T12:30:39.721Z,5.31
2022-11-23T12:33:33.704Z,5.19
2022-11-23T12:36:16.791Z,5.46
2022-11-23T12:39:01.093Z,5.33
2022-11-23T12:41:52.795Z,5.50
2022-11-23T12:44:41.282Z,5.51
2022-11-23T12:47:30.281Z,5.29
2022-11-23T12:50:35.322Z,5.61
2022-11-23T12:53:23.656Z,5.46
2022-11-23T12:56:02.990Z,5.52
2022-11-23T12:58:32.574Z,5.60
2022-11-23T13:01:20.602Z,5.56
2022-11-23T13:04:14.835Z,5.51
2022-11-23T13:07:28.557Z,5.58
2022-11-23T13:10:09.130Z,5.52
2022-11-23T13:13:04.688Z,5.65
2022-11-23T13:15:42.784Z,5.75
2022-11-23T13:18:43.136Z,5.78
2022-11-23T13:21:29.181Z,5.94
2022-11-23T13:23:55.648Z,5.70
2022-11-23T13:26:24.477Z,5.68
2022-11-23T13:28:53.000Z,5.68
2022-11-23T13:31:23.835Z,5.73
2022-11-23T13:34:01.712Z,5.80
2022-11-23T13:37:04.290Z,5.79
2022-11-23T13:39:43.947Z,5.80
2022-11-23T13:42:11.395Z,5.77
2022-11-23T13:44:37.996Z,5.82
2022-11-23T13:47:19.870Z,5.87
2022-11-23T13:49:49.463Z,5.86
2022-11-23T13:52:22.319Z,5.82
2022-11-23T13:55:13.458Z,5.85
2022-11-23T13:57:42.264Z,5.77
2022-11-23T14:00:47.510Z,5.86
2022-11-23T14:03:53.740Z,5.86
2022-11-23T14:06:39.066Z,5.86
2022-11-23T14:09:08.559Z,5.99
2022-11-23T14:11:49.491Z,5.89
2022-11-23T14:14:22.174Z,5.92
2022-11-23T14:17:22.343Z,5.98
2022-11-23T14:20:16.414Z,5.95
2022-11-23T14:23:00.109Z,5.99
2022-11-23T14:25:35.751Z,5.96
2022-11-23T14:28:21.381Z,5.89
2022-11-23T14:31:17.278Z,5.88
2022-11-23T14:33:59.501Z,5.83
2022-11-23T14:36:43.264Z,5.96
2022-11-23T14:39:28.204Z,5.87
2022-11-23T14:41:58.586Z,5.82
2022-11-23T14:44:27.771Z,5.73
2022-11-23T14:47:08.055Z,5.72
2022-11-23T14:49:34.987Z,5.74
2022-11-23T14:52:04.012Z,5.75
2022-11-23T14:54:32.096Z,5.67
2022-11-23T14:57:02.701Z,5.62
2022-11-23T14:59:40.217Z,5.50
2022-11-23T15:02:29.593Z,5.48
2022-11-23T15:05:03.095Z,5.56
2022-11-23T15:07:43.799Z,5.49
2022-11-23T15:10:40.197Z,5.54
2022-11-23T15:13:24.569Z,5.56
2022-11-23T15:15:55.062Z,5.57
2022-11-23T15:18:37.825Z,5.56
2022-11-23T15:21:27.984Z,5.43
2022-11-23T15:23:57.491Z,5.40
2022-11-23T15:26:47.274Z,5.32
2022-11-23T15:29:34.765Z,5.20
2022-11-23T15:34:51.120Z,5.25
2022-11-23T15:37:18.360Z,5.21
2022-11-23T15:39:46.327Z,5.17
2022-11-23T15:42:18.337Z,5.10
2022-11-23T15:44:49.061Z,5.14
2022-11-23T15:47:27.074Z,5.13
2022-11-23T15:50:13.898Z,5.05
2022-11-23T15:52:42.533Z,5.02
2022-11-23T15:55:14.587Z,5.02
2022-11-23T15:57:42.622Z,5.05
2022-11-23T16:00:22.930Z,5.06
2022-11-23T16:02:49.861Z,5.03
2022-11-23T16:05:22.490Z,4.94
2022-11-23T16:07:57.638Z,4.96
2022-11-23T16:10:25.961Z,4.81
2022-11-23T16:13:00.752Z,4.81
2022-11-23T16:15:27.118Z,4.82
2022-11-23T16:17:53.764Z,4.71
2022-11-23T16:20:23.894Z,4.68
2022-11-23T16:22:52.828Z,4.63
2022-11-23T16:25:36.075Z,4.51
2022-11-23T16:28:06.295Z,4.56
2022-11-23T16:30:35.479Z,4.54
2022-11-23T16:33:01.980Z,4.39
2022-11-23T16:35:28.442Z,4.38
2022-11-23T16:37:54.925Z,4.34
2022-11-23T16:40:21.408Z,4.35
2022-11-23T16:42:53.744Z,4.19
2022-11-23T16:45:20.526Z,4.26
2022-11-23T16:48:00.941Z,4.34
2022-11-23T16:50:32.729Z,4.27
2022-11-23T16:53:14.515Z,4.32
2022-11-23T16:55:43.705Z,4.21
2022-11-23T16:58:14.518Z,4.08
2022-11-23T17:00:40.999Z,4.15
2022-11-23T17:03:16.278Z,4.22
2022-11-23T17:05:42.920Z,4.18
2022-11-23T17:08:09.380Z,4.16
2022-11-23T17:10:40.381Z,4.11
2022-11-23T17:13:12.630Z,4.12
2022-11-23T17:15:39.714Z,4.10
2022-11-23T17:18:13.156Z,3.97
2022-11-23T17:20:39.609Z,4.00
2022-11-23T17:23:06.234Z,3.92
2022-11-23T17:25:34.238Z,3.91
2022-11-23T17:28:01.367Z,3.91
2022-11-23T17:30:28.439Z,3.85
2022-11-23T17:32:55.038Z,3.87
2022-11-23T17:35:21.497Z,3.89
2022-11-23T17:37:48.472Z,3.85
2022-11-23T17:40:16.706Z,3.86
2022-11-23T17:42:43.213Z,3.90
2022-11-23T17:45:10.422Z,3.89
2022-11-23T17:47:38.063Z,3.85
2022-11-23T17:50:07.139Z,3.78
2022-11-23T17:52:33.654Z,3.85
2022-11-23T17:55:00.151Z,3.88
2022-11-23T17:57:27.348Z,3.77
2022-11-23T17:59:54.441Z,3.64
2022-11-23T18:02:21.114Z,3.66
2022-11-23T18:04:47.737Z,3.66
2022-11-23T18:07:15.479Z,3.70
2022-11-23T18:09:42.630Z,3.63
2022-11-23T18:12:09.825Z,3.62
2022-11-23T18:14:36.580Z,3.59
2022-11-23T18:17:03.347Z,3.56
2022-11-23T18:19:30.067Z,3.60
2022-11-23T18:21:57.263Z,3.56
2022-11-23T18:24:23.810Z,3.54
2022-11-23T18:26:50.233Z,3.53
2022-11-23T18:29:17.560Z,3.55
2022-11-23T18:31:44.276Z,3.49
2022-11-23T18:34:10.753Z,3.51
2022-11-23T18:36:37.393Z,3.43
2022-11-23T18:39:03.989Z,3.40
2022-11-23T18:41:30.496Z,3.40
2022-11-23T18:43:57.005Z,3.38
2022-11-23T18:46:23.542Z,3.38
2022-11-23T18:48:51.430Z,3.31
2022-11-23T18:51:18.642Z,3.27
2022-11-23T18:53:47.586Z,3.27
2022-11-23T18:56:14.191Z,3.29
2022-11-23T18:58:42.384Z,3.27
2022-11-23T19:01:12.158Z,3.22
2022-11-23T19:03:42.214Z,3.23
2022-11-23T19:06:13.362Z,3.17
2022-11-23T19:08:41.999Z,3.12
2022-11-23T19:11:15.910Z,3.11
2022-11-23T19:13:42.391Z,3.11
2022-11-23T19:16:16.218Z,3.12
2022-11-23T19:18:43.687Z,3.06
2022-11-23T19:21:18.650Z,2.97
2022-11-23T19:23:48.802Z,2.95
2022-11-23T19:26:15.611Z,2.98
2022-11-23T19:28:44.748Z,2.97
2022-11-23T19:31:15.228Z,2.93
2022-11-23T19:33:42.951Z,2.93
2022-11-23T19:36:20.935Z,2.89
2022-11-23T19:38:50.531Z,2.90
2022-11-23T19:41:18.472Z,2.92
2022-11-23T19:43:45.641Z,2.94
2022-11-23T19:46:14.140Z,2.89
2022-11-23T19:48:42.036Z,2.86
2022-11-23T19:51:12.185Z,2.84
2022-11-23T19:53:40.142Z,2.84
2022-11-23T19:56:09.958Z,2.83
2022-11-23T19:58:36.467Z,2.76
2022-11-23T20:01:05.238Z,2.78
2022-11-23T20:03:34.760Z,2.78
2022-11-23T20:06:04.554Z,2.74
2022-11-23T20:08:31.102Z,2.78
2022-11-23T20:10:57.839Z,2.72
2022-11-23T20:13:24.657Z,2.68
2022-11-23T20:15:51.342Z,2.64
2022-11-23T20:18:18.643Z,2.61
2022-11-23T20:20:47.173Z,2.60
2022-11-23T20:23:14.788Z,2.60
2022-11-23T20:25:42.166Z,2.57
2022-11-23T20:28:13.051Z,2.53
2022-11-23T20:30:41.958Z,2.53
2022-11-23T20:33:09.748Z,2.49
2022-11-23T20:35:36.249Z,2.49
2022-11-23T20:38:03.312Z,2.48
2022-11-23T20:40:29.785Z,2.44
2022-11-23T20:42:57.263Z,2.42
2022-11-23T20:45:24.557Z,2.32
2022-11-23T20:47:54.750Z,2.23
2022-11-23T20:50:26.848Z,2.24
2022-11-23T20:53:01.915Z,2.20
2022-11-23T20:55:28.510Z,2.23
2022-11-23T20:57:55.060Z,2.18
2022-11-23T21:00:22.220Z,2.16
2022-11-23T21:02:52.937Z,2.12
2022-11-23T21:05:20.071Z,2.08
2022-11-23T21:07:47.995Z,2.05
2022-11-23T21:10:34.036Z,1.99
2022-11-23T21:13:19.952Z,1.86
2022-11-23T21:15:46.526Z,1.76
2022-11-23T21:18:13.255Z,1.70
2022-11-23T21:20:40.903Z,1.69
2022-11-23T21:23:07.369Z,1.67
2022-11-23T21:25:35.491Z,1.68
2022-11-23T21:28:03.232Z,1.71
2022-11-23T21:30:30.658Z,1.80
2022-11-23T21:32:57.492Z,1.83
2022-11-23T21:35:24.026Z,1.89
2022-11-23T21:37:50.491Z,1.88
2022-11-23T21:40:16.992Z,1.73
2022-11-23T21:42:44.664Z,1.67
2022-11-23T21:45:11.199Z,1.68
2022-11-23T21:47:37.639Z,1.58
2022-11-23T21:50:04.615Z,1.39
2022-11-23T21:52:31.049Z,1.40
2022-11-23T21:54:57.489Z,1.39
2022-11-23T21:57:23.931Z,1.45
2022-11-23T21:59:50.396Z,1.42
2022-11-23T22:02:16.917Z,1.42
2022-11-23T22:04:43.428Z,1.49
2022-11-23T22:07:10.002Z,1.38
2022-11-23T22:09:37.908Z,1.38
2022-11-23T22:12:04.560Z,1.35
2022-11-23T22:14:31.286Z,1.36
2022-11-23T22:16:58.216Z,1.30
2022-11-23T22:19:24.650Z,1.26
2022-11-23T22:21:51.109Z,1.08
2022-11-23T22:24:19.330Z,1.12
2022-11-23T22:26:47.475Z,1.04
2022-11-23T22:29:14.384Z,1.12
2022-11-23T22:31:41.207Z,1.17
2022-11-23T22:34:10.433Z,1.21
2022-11-23T22:36:36.904Z,1.15
2022-11-23T22:39:05.663Z,1.14
2022-11-23T22:41:39.117Z,1.12
2022-11-23T22:44:07.504Z,1.10
2022-11-23T22:46:34.036Z,0.94
2022-11-23T22:49:01.799Z,1.03
2022-11-23T22:51:28.804Z,0.91
2022-11-23T22:53:57.181Z,0.99
2022-11-23T22:56:23.994Z,0.83
2022-11-23T22:58:50.647Z,0.82
2022-11-23T23:01:28.926Z,0.90
2022-11-23T23:03:56.912Z,0.95
2022-11-23T23:06:26.175Z,0.92
2022-11-23T23:08:55.906Z,0.80
2022-11-23T23:11:23.425Z,0.82
2022-11-23T23:13:49.946Z,0.77
2022-11-23T23:16:16.925Z,0.71
2022-11-23T23:18:44.133Z,0.73
2022-11-23T23:21:14.820Z,0.75
2022-11-23T23:23:43.979Z,0.68
2022-11-23T23:26:12.399Z,0.78
2022-11-23T23:28:39.172Z,0.65
2022-11-23T23:31:11.421Z,0.65
2022-11-23T23:33:38.253Z,0.72
2022-11-23T23:36:13.053Z,0.70
2022-11-23T23:38:40.474Z,0.73
2022-11-23T23:41:08.486Z,0.66
2022-11-23T23:43:35.023Z,0.62
2022-11-23T23:46:03.659Z,0.64
2022-11-23T23:48:33.711Z,0.64
2022-11-23T23:51:26.814Z,0.59
2022-11-23T23:53:53.425Z,0.65
2022-11-23T23:56:23.208Z,0.61
2022-11-23T23:58:49.827Z,0.55
